Time;durP1;ratioP1;P1;durP2;ratioP2;P2;SDS_P1;SDS_P2;PMS_P1;PMS_P2;Temp;Humidity;BMP_temperature;BMP_pressure;BME280_temperature;BME280_humidity;BME280_pressure;Samples;Min_cycle;Max_cycle;Signal;HPM_P1;HPM_P2
2022/10/11 00:01:14;;;;;;;1.97;0.40;;;;;;;16.83;80.68;96027.00;5132895;27;20734;-58
2022/10/11 00:03:42;;;;;;;1.13;0.40;;;;;;;16.88;80.04;96021.56;5133964;27;20835;-58
2022/10/11 00:06:11;;;;;;;0.60;0.50;;;;;;;15.57;79.53;95812.94;5133744;27;20434;-58
2022/10/11 00:08:39;;;;;;;0.70;0.70;;;;;;;17.00;79.92;96021.94;5133680;27;20469;-58
2022/10/11 00:11:08;;;;;;;0.50;0.40;;;;;;;16.96;79.62;96023.56;5133364;27;20426;-58
2022/10/11 00:13:36;;;;;;;0.60;0.50;;;;;;;17.11;79.10;96015.28;5133688;27;20434;-58
2022/10/11 00:16:09;;;;;;;0.70;0.50;;;;;;;17.14;79.05;96017.41;5133504;27;20426;-58
2022/10/11 00:18:38;;;;;;;0.40;0.30;;;;;;;17.18;79.05;96007.66;5133648;27;20440;-58
2022/10/11 00:21:09;;;;;;;0.50;0.40;;;;;;;17.02;79.78;96011.72;5133207;27;20790;-58
2022/10/11 00:23:37;;;;;;;0.40;0.20;;;;;;;17.08;79.10;96014.00;5132892;27;20466;-58
2022/10/11 00:26:08;;;;;;;0.40;0.30;;;;;;;17.08;78.90;96007.84;5133153;27;20448;-58
2022/10/11 00:28:37;;;;;;;1.23;0.30;;;;;;;16.73;81.50;96003.84;5133018;27;20417;-58
2022/10/11 00:31:08;;;;;;;0.57;0.37;;;;;;;16.49;80.60;95931.63;5133012;27;20824;-58
2022/10/11 00:33:37;;;;;;;0.50;0.30;;;;;;;16.94;80.22;96004.34;5133260;27;20437;-57
2022/10/11 00:36:06;;;;;;;0.50;0.50;;;;;;;17.00;80.35;96003.94;5133035;27;20430;-58
2022/10/11 00:38:35;;;;;;;0.93;0.70;;;;;;;16.88;80.05;95979.50;5133218;27;20520;-58
2022/10/11 00:41:04;;;;;;;0.80;0.47;;;;;;;16.86;80.58;95999.63;5132989;27;20429;-57
2022/10/11 00:43:32;;;;;;;0.60;0.50;;;;;;;16.36;82.93;95988.59;5132968;27;20429;-57
2022/10/11 00:46:36;;;;;;;0.50;0.30;;;;;;;16.08;88.52;95989.50;5132825;27;20430;-57
2022/10/11 00:49:15;;;;;;;0.50;0.40;;;;;;;16.39;84.94;95982.63;5133042;27;20476;-57
2022/10/11 00:51:50;;;;;;;0.47;0.30;;;;;;;16.66;83.35;95981.22;5132867;27;20430;-57
2022/10/11 00:54:24;;;;;;;0.40;0.30;;;;;;;16.60;82.24;95975.13;5133111;27;20429;-56
2022/10/11 00:56:58;;;;;;;0.40;0.30;;;;;;;16.42;83.60;95974.03;5132912;27;20436;-57
2022/10/11 00:59:31;;;;;;;0.50;0.40;;;;;;;15.46;82.38;95813.34;5132748;27;20971;-57
2022/10/11 01:01:59;;;;;;;0.50;0.30;;;;;;;16.47;83.29;95981.19;5131769;27;20431;-57
2022/10/11 01:04:29;;;;;;;0.50;0.40;;;;;;;16.62;82.24;95978.31;5132822;27;20515;-57
2022/10/11 01:06:58;;;;;;;0.80;0.63;;;;;;;16.66;81.89;95975.84;5132590;27;20438;-56
2022/10/11 01:09:27;;;;;;;0.50;0.47;;;;;;;16.10;84.73;95971.28;5132634;27;20476;-57
2022/10/11 01:11:58;;;;;;;0.50;0.40;;;;;;;16.31;84.68;95961.91;5132574;27;20440;-56
2022/10/11 01:14:59;;;;;;;0.50;0.40;;;;;;;16.51;83.62;95966.94;5131912;27;20515;-57
2022/10/11 01:17:34;;;;;;;0.90;0.90;;;;;;;16.44;84.25;95958.47;5132672;27;20528;-56
2022/10/11 01:20:35;;;;;;;0.43;0.30;;;;;;;16.55;83.02;95961.84;5132367;27;20429;-57
2022/10/11 01:23:40;;;;;;;0.50;0.30;;;;;;;16.62;82.41;95964.94;5130198;27;20451;-56
2022/10/11 01:26:35;;;;;;;0.50;0.30;;;;;;;16.56;82.30;95968.78;5132739;27;20448;-56
2022/10/11 01:29:12;;;;;;;0.40;0.30;;;;;;;16.53;82.54;95953.31;5132168;27;21062;-56
2022/10/11 01:31:49;;;;;;;0.50;0.50;;;;;;;16.60;82.16;95952.91;5132504;27;20428;-57
2022/10/11 01:34:25;;;;;;;0.50;0.40;;;;;;;16.63;81.95;95957.69;5132254;27;20437;-57
2022/10/11 01:36:59;;;;;;;0.40;0.30;;;;;;;16.36;83.52;95956.47;5132202;27;20425;-57
2022/10/11 01:39:33;;;;;;;0.40;0.30;;;;;;;16.08;87.06;95961.94;5132577;27;20438;-57
2022/10/11 01:42:06;;;;;;;0.43;0.40;;;;;;;16.29;85.42;95952.56;5136607;27;20451;-57
2022/10/11 01:44:37;;;;;;;0.60;0.40;;;;;;;16.39;83.39;95939.81;5136332;27;20948;-57
2022/10/11 01:47:07;;;;;;;0.40;0.20;;;;;;;16.01;86.97;95929.44;5136491;27;20433;-57
2022/10/11 01:49:36;;;;;;;0.80;0.80;;;;;;;16.27;86.02;95950.16;5136013;27;20468;-57
2022/10/11 01:52:06;;;;;;;0.50;0.30;;;;;;;16.26;85.13;95947.78;5136523;27;20937;-56
2022/10/11 01:54:51;;;;;;;0.40;0.30;;;;;;;16.13;87.72;95960.00;5136159;27;20425;-56
2022/10/11 01:58:15;;;;;;;0.43;0.30;;;;;;;16.10;88.15;95957.09;5136396;27;20441;-56
2022/10/11 02:00:52;;;;;;;0.43;0.33;;;;;;;16.41;85.57;95947.56;5072463;28;20442;-57
2022/10/11 02:03:33;;;;;;;1.00;0.40;;;;;;;16.14;86.46;95955.47;5072108;28;20928;-56
2022/10/11 02:06:08;;;;;;;0.50;0.40;;;;;;;15.45;86.51;95833.94;5113367;27;20441;-56
2022/10/11 02:08:44;;;;;;;0.50;0.43;;;;;;;16.31;86.05;95951.19;5135876;27;20839;-56
2022/10/11 02:11:19;;;;;;;0.40;0.30;;;;;;;16.35;84.75;95944.16;5135758;27;20472;-56
2022/10/11 02:13:55;;;;;;;0.47;0.37;;;;;;;15.93;86.42;95946.91;5136188;27;20944;-56
2022/10/11 02:16:28;;;;;;;0.50;0.30;;;;;;;16.10;85.70;95943.72;5134864;27;20429;-56
2022/10/11 02:18:59;;;;;;;1.33;1.23;;;;;;;16.36;84.26;95945.78;5135649;27;20433;-56
2022/10/11 02:21:30;;;;;;;0.40;0.20;;;;;;;16.10;85.15;95944.53;5135624;27;20513;-56
2022/10/11 02:24:03;;;;;;;0.53;0.50;;;;;;;15.25;87.15;95876.91;5135693;27;20513;-56
2022/10/11 02:26:34;;;;;;;0.40;0.30;;;;;;;15.81;86.67;95935.84;5134980;27;20432;-56
2022/10/11 02:29:08;;;;;;;0.77;0.77;;;;;;;15.71;90.10;95946.66;5135944;27;20931;-56
2022/10/11 02:31:37;;;;;;;0.90;0.90;;;;;;;15.76;89.38;95943.91;5135370;27;20989;-56
2022/10/11 02:34:13;;;;;;;0.80;0.67;;;;;;;15.84;88.43;95941.38;5135755;27;20433;-56
2022/10/11 02:36:50;;;;;;;0.60;0.60;;;;;;;15.72;89.12;95943.69;5135781;27;20437;-56
2022/10/11 02:39:25;;;;;;;0.40;0.27;;;;;;;15.83;88.71;95945.16;5135354;27;20422;-56
2022/10/11 02:41:58;;;;;;;0.67;0.50;;;;;;;15.87;87.09;95940.03;5135517;27;20448;-56
2022/10/11 02:44:31;;;;;;;0.50;0.30;;;;;;;15.31;91.26;95936.38;5135132;27;20441;-56
2022/10/11 02:47:01;;;;;;;0.47;0.37;;;;;;;14.89;97.08;95943.19;5135113;27;20438;-56
2022/10/11 02:49:32;;;;;;;0.63;0.57;;;;;;;15.41;93.11;95933.59;5135192;27;20440;-56
2022/10/11 02:52:00;;;;;;;0.50;0.40;;;;;;;15.59;90.71;95939.03;5135005;27;20470;-56
2022/10/11 02:54:29;;;;;;;0.50;0.47;;;;;;;15.58;89.23;95934.78;5134924;27;20436;-56
2022/10/11 02:56:58;;;;;;;1.10;0.73;;;;;;;15.74;88.76;95944.19;5135000;27;20420;-56
2022/10/11 02:59:26;;;;;;;0.50;0.40;;;;;;;15.26;90.47;95930.00;5134863;27;20457;-56
2022/10/11 03:01:54;;;;;;;0.67;0.60;;;;;;;14.80;98.71;95944.88;5134735;27;20432;-56
2022/10/11 03:04:23;;;;;;;0.43;0.33;;;;;;;15.20;97.46;95939.16;5135150;27;20501;-57
2022/10/11 03:06:52;;;;;;;0.47;0.30;;;;;;;15.47;91.91;95938.63;5134841;27;20959;-57
2022/10/11 03:09:20;;;;;;;0.40;0.30;;;;;;;15.56;91.15;95942.25;5134878;27;20425;-57
2022/10/11 03:11:49;;;;;;;0.50;0.40;;;;;;;15.38;92.71;95947.53;5134643;27;20472;-56
2022/10/11 03:14:17;;;;;;;0.40;0.30;;;;;;;15.12;97.64;95934.44;5134557;27;21074;-56
2022/10/11 03:16:45;;;;;;;0.50;0.30;;;;;;;15.39;93.21;95938.44;5134153;27;20430;-56
2022/10/11 03:19:13;;;;;;;0.50;0.40;;;;;;;15.59;91.45;95932.88;5134875;27;20453;-56
2022/10/11 03:21:46;;;;;;;0.40;0.30;;;;;;;15.67;90.57;95935.72;5134930;27;20442;-57
2022/10/11 03:24:16;;;;;;;0.40;0.30;;;;;;;15.50;90.41;95937.28;5134444;27;20482;-56
2022/10/11 03:26:44;;;;;;;0.97;0.47;;;;;;;15.35;91.53;95934.75;5134632;27;20449;-56
2022/10/11 03:29:12;;;;;;;0.40;0.30;;;;;;;15.51;90.68;95933.53;5134333;27;20438;-56
2022/10/11 03:31:41;;;;;;;0.60;0.60;;;;;;;15.73;90.70;95929.25;5134381;27;20844;-58
2022/10/11 03:34:09;;;;;;;0.50;0.30;;;;;;;15.22;94.30;95921.00;5134508;27;20465;-57
2022/10/11 03:36:37;;;;;;;0.87;0.87;;;;;;;15.44;93.22;95925.81;5134162;27;20422;-56
2022/10/11 03:39:06;;;;;;;0.47;0.30;;;;;;;14.83;99.13;95940.84;5134383;27;20422;-56
2022/10/11 03:41:35;;;;;;;0.73;0.67;;;;;;;14.75;100.00;95944.13;5134062;27;20434;-57
2022/10/11 03:44:04;;;;;;;0.50;0.40;;;;;;;15.07;97.31;95915.81;5133930;27;20434;-56
2022/10/11 03:46:32;;;;;;;1.80;0.50;;;;;;;15.32;95.44;95938.78;5133517;27;20437;-56
2022/10/11 03:49:01;;;;;;;0.50;0.30;;;;;;;15.24;95.81;95934.03;5134016;27;20429;-56
2022/10/11 03:51:30;;;;;;;1.80;1.40;;;;;;;15.23;95.80;95935.91;5133885;27;21008;-57
2022/10/11 03:54:00;;;;;;;0.50;0.47;;;;;;;15.15;97.10;95933.09;5134114;27;20457;-57
2022/10/11 03:56:29;;;;;;;0.50;0.40;;;;;;;14.10;95.34;95734.78;5133898;27;20430;-57
2022/10/11 03:58:58;;;;;;;0.40;0.20;;;;;;;15.38;93.91;95913.59;5133853;27;20434;-57
2022/10/11 04:01:26;;;;;;;0.47;0.30;;;;;;;14.97;98.89;95926.59;5133833;27;20418;-57
2022/10/11 04:03:56;;;;;;;0.43;0.37;;;;;;;14.47;100.00;95935.03;5133126;27;20459;-56
2022/10/11 04:06:24;;;;;;;1.87;1.73;;;;;;;14.26;100.00;95946.84;5133954;27;20964;-57
2022/10/11 04:08:53;;;;;;;0.50;0.30;;;;;;;15.01;100.00;95940.94;5133194;27;20453;-57
2022/10/11 04:11:21;;;;;;;0.67;0.57;;;;;;;15.18;98.77;95935.97;5133829;27;20476;-56
2022/10/11 04:13:49;;;;;;;0.50;0.40;;;;;;;15.14;98.67;95937.63;5133557;27;20425;-57
2022/10/11 04:16:19;;;;;;;1.27;1.07;;;;;;;14.99;99.87;95921.75;5133738;27;20961;-56
2022/10/11 04:18:47;;;;;;;0.40;0.30;;;;;;;15.27;97.63;95925.47;5133386;27;20429;-56
2022/10/11 04:21:15;;;;;;;0.50;0.40;;;;;;;15.30;98.06;95916.09;5132913;27;20418;-55
2022/10/11 04:23:44;;;;;;;0.93;0.83;;;;;;;15.32;98.46;95916.59;5133229;27;20477;-56
2022/10/11 04:26:12;;;;;;;0.83;0.50;;;;;;;15.47;94.92;95914.59;5133267;27;20441;-57
2022/10/11 04:28:40;;;;;;;0.70;0.70;;;;;;;14.88;100.00;95922.91;5133150;27;20919;-56
2022/10/11 04:31:08;;;;;;;0.80;0.77;;;;;;;15.13;99.88;95928.00;5132828;27;20479;-57
2022/10/11 04:33:38;;;;;;;0.70;0.70;;;;;;;15.58;99.28;95932.09;5133444;27;20429;-56
2022/10/11 04:36:07;;;;;;;0.50;0.43;;;;;;;15.27;97.74;95934.28;5133420;27;20432;-57
2022/10/11 04:38:36;;;;;;;4.00;0.80;;;;;;;15.52;97.15;95927.09;5133053;27;20429;-57
2022/10/11 04:41:08;;;;;;;0.57;0.30;;;;;;;15.32;96.47;95897.91;5133203;27;20925;-56
2022/10/11 04:43:37;;;;;;;0.60;0.60;;;;;;;15.64;96.98;95924.81;5132832;27;20431;-56
2022/10/11 04:46:06;;;;;;;0.60;0.60;;;;;;;14.65;97.95;95810.81;5133254;27;20440;-57
2022/10/11 04:48:36;;;;;;;0.83;0.83;;;;;;;15.50;96.35;95923.91;5132739;27;20433;-57
2022/10/11 04:51:06;;;;;;;0.90;0.90;;;;;;;15.64;95.21;95924.81;5133053;27;20770;-57
2022/10/11 04:53:34;;;;;;;0.60;0.60;;;;;;;15.77;93.53;95924.91;5133194;27;20430;-57
2022/10/11 04:56:06;;;;;;;0.40;0.20;;;;;;;15.52;94.35;95935.09;5133228;27;20426;-56
2022/10/11 04:58:35;;;;;;;0.60;0.50;;;;;;;15.63;94.19;95925.91;5132572;27;20466;-57
2022/10/11 05:01:04;;;;;;;0.40;0.30;;;;;;;15.84;93.99;95927.22;5132823;27;20438;-57
2022/10/11 05:03:32;;;;;;;1.80;0.40;;;;;;;15.17;98.62;95928.25;5132959;27;20426;-56
2022/10/11 05:06:01;;;;;;;0.63;0.63;;;;;;;15.39;96.75;95920.53;5132884;27;20828;-56
2022/10/11 05:08:34;;;;;;;0.60;0.40;;;;;;;15.72;93.67;95927.66;5132641;27;20433;-56
2022/10/11 05:11:05;;;;;;;0.80;0.80;;;;;;;15.83;92.46;95928.31;5132879;27;20437;-57
2022/10/11 05:13:35;;;;;;;1.20;1.10;;;;;;;15.43;94.65;95926.09;5132721;27;20796;-56
2022/10/11 05:16:05;;;;;;;0.73;0.73;;;;;;;14.99;99.04;95919.09;5132454;27;20429;-57
2022/10/11 05:18:38;;;;;;;7.13;1.50;;;;;;;15.37;98.99;95927.22;5132730;27;20472;-56
2022/10/11 05:21:08;;;;;;;0.50;0.40;;;;;;;15.84;94.46;95927.22;5132574;27;20983;-56
2022/10/11 05:23:38;;;;;;;1.13;0.60;;;;;;;16.08;92.41;95925.31;5132269;27;20861;-57
2022/10/11 05:26:06;;;;;;;0.57;0.57;;;;;;;16.07;91.07;95913.00;5131818;27;20438;-57
2022/10/11 05:28:35;;;;;;;0.73;0.70;;;;;;;16.48;89.65;95930.06;5132780;27;20844;-57
2022/10/11 05:31:04;;;;;;;0.60;0.50;;;;;;;16.49;87.51;95928.19;5132499;27;20417;-57
2022/10/11 05:33:32;;;;;;;1.00;0.47;;;;;;;16.04;89.81;95932.31;5132417;27;20968;-57
2022/10/11 05:36:01;;;;;;;0.57;0.57;;;;;;;14.57;93.96;95788.22;5132498;27;20429;-57
2022/10/11 05:38:30;;;;;;;0.77;0.77;;;;;;;14.53;98.49;95833.34;5132377;27;20437;-57
2022/10/11 05:41:01;;;;;;;1.37;1.20;;;;;;;15.08;100.00;95948.63;5132270;27;20429;-56
2022/10/11 05:43:29;;;;;;;1.20;0.83;;;;;;;14.96;100.00;95946.34;5132363;27;20428;-56
2022/10/11 05:45:58;;;;;;;0.60;0.40;;;;;;;15.29;97.93;95880.59;5132685;27;20525;-56
2022/10/11 05:48:27;;;;;;;0.80;0.80;;;;;;;15.70;96.04;95945.84;5132721;27;20414;-57
2022/10/11 05:50:59;;;;;;;1.13;1.13;;;;;;;15.84;95.32;95937.91;5132758;27;20437;-59
2022/10/11 05:53:27;;;;;;;3.17;0.37;;;;;;;15.93;94.10;95944.22;5132154;27;20496;-58
2022/10/11 05:55:56;;;;;;;0.90;0.73;;;;;;;15.59;93.56;95895.47;5132103;27;20437;-57
2022/10/11 05:58:26;;;;;;;4.60;0.80;;;;;;;15.97;94.15;95947.09;5132067;27;20422;-58
2022/10/11 06:00:55;;;;;;;0.60;0.50;;;;;;;15.76;95.63;95946.59;5132002;27;20425;-58
2022/10/11 06:03:24;;;;;;;5.17;0.70;;;;;;;15.75;97.71;95945.00;5132709;27;20518;-58
2022/10/11 06:05:52;;;;;;;2.47;1.00;;;;;;;15.58;99.44;95931.31;5132345;27;20942;-58
2022/10/11 06:08:24;;;;;;;0.87;0.87;;;;;;;15.90;98.48;95939.44;5132657;27;21020;-59
2022/10/11 06:10:52;;;;;;;0.77;0.77;;;;;;;16.16;95.34;95946.06;5132249;27;20425;-58
2022/10/11 06:13:20;;;;;;;1.13;1.03;;;;;;;16.75;90.76;95942.78;5132003;27;20481;-59
2022/10/11 06:15:50;;;;;;;1.20;1.17;;;;;;;16.42;91.54;95939.25;5132514;27;20430;-60
2022/10/11 06:18:18;;;;;;;10.43;2.50;;;;;;;16.35;92.26;95944.16;5132202;27;20945;-61
2022/10/11 06:20:47;;;;;;;3.90;2.00;;;;;;;16.34;91.53;95952.50;5132074;27;20431;-58
2022/10/11 06:23:15;;;;;;;1.80;1.70;;;;;;;16.37;91.07;95954.56;5131975;27;20936;-58
2022/10/11 06:25:43;;;;;;;1.30;1.20;;;;;;;16.60;89.68;95945.69;5132298;27;20791;-60
2022/10/11 06:28:11;;;;;;;2.00;1.90;;;;;;;16.22;91.21;95947.56;5135906;27;20434;-60
2022/10/11 06:30:40;;;;;;;1.73;1.63;;;;;;;15.90;93.95;95944.81;5135487;27;20491;-61
2022/10/11 06:33:09;;;;;;;1.03;0.93;;;;;;;16.07;94.41;95953.13;5135611;27;20469;-59
2022/10/11 06:35:38;;;;;;;0.80;0.80;;;;;;;16.19;94.17;95950.81;5135453;27;20423;-60
2022/10/11 06:38:06;;;;;;;1.20;0.83;;;;;;;15.99;96.91;95956.44;5135712;27;20434;-59
2022/10/11 06:40:34;;;;;;;0.73;0.73;;;;;;;16.35;93.98;95962.09;5135619;27;20427;-59
2022/10/11 06:43:02;;;;;;;0.40;0.40;;;;;;;16.22;93.84;95960.94;5135557;27;20929;-60
2022/10/11 06:45:33;;;;;;;0.87;0.87;;;;;;;15.02;100.00;95921.19;5135481;27;20429;-60
2022/10/11 06:48:04;;;;;;;5.43;1.17;;;;;;;15.16;100.00;95978.19;5135466;27;20446;-60
2022/10/11 06:50:34;;;;;;;0.50;0.50;;;;;;;15.08;100.00;95890.69;5135615;27;20793;-60
2022/10/11 06:53:22;;;;;;;1.20;0.90;;;;;;;15.22;100.00;95961.03;5135111;27;20476;-60
2022/10/11 06:55:50;;;;;;;1.60;1.50;;;;;;;15.49;100.00;95890.25;5135179;27;20432;-60
2022/10/11 06:58:19;;;;;;;1.80;1.47;;;;;;;16.02;97.19;95963.88;5135468;27;20422;-60
2022/10/11 07:00:47;;;;;;;2.60;1.53;;;;;;;16.12;97.05;95966.44;5134702;27;20428;-59
2022/10/11 07:03:15;;;;;;;3.33;1.03;;;;;;;16.83;92.67;95954.69;5135062;27;20422;-59
2022/10/11 07:05:45;;;;;;;3.83;0.80;;;;;;;16.67;91.03;95964.84;5134829;27;20503;-60
2022/10/11 07:08:13;;;;;;;0.50;0.50;;;;;;;17.32;89.84;95960.28;5135076;27;20425;-60
2022/10/11 07:10:41;;;;;;;0.70;0.53;;;;;;;17.14;87.99;95888.81;5135187;27;20437;-60
2022/10/11 07:13:09;;;;;;;0.80;0.80;;;;;;;17.89;83.83;95964.28;5134996;27;21023;-59
2022/10/11 07:15:44;;;;;;;0.73;0.70;;;;;;;17.72;82.78;95959.53;5135291;27;20438;-59
2022/10/11 07:18:12;;;;;;;1.57;1.57;;;;;;;17.35;83.57;95950.88;5134400;27;20429;-60
2022/10/11 07:20:41;;;;;;;0.60;0.50;;;;;;;18.21;80.77;95952.66;5134676;27;20517;-62
2022/10/11 07:23:11;;;;;;;0.40;0.37;;;;;;;18.29;80.02;95949.25;5134907;27;20510;-51
2022/10/11 07:25:39;;;;;;;1.70;1.60;;;;;;;18.62;76.96;95960.63;5134527;27;20433;-51
2022/10/11 07:28:07;;;;;;;2.00;1.90;;;;;;;19.18;73.71;95960.03;5134633;27;20419;-51
2022/10/11 07:30:38;;;;;;;0.67;0.50;;;;;;;19.26;71.81;95959.28;5134415;27;20427;-51
2022/10/11 07:33:07;;;;;;;0.60;0.60;;;;;;;19.08;72.35;95962.97;5134673;27;20527;-51
2022/10/11 07:35:36;;;;;;;8.10;1.73;;;;;;;19.60;71.79;95964.88;5134639;27;20423;-50
2022/10/11 07:38:07;;;;;;;0.70;0.70;;;;;;;19.65;69.81;95929.78;5132698;27;20431;-50
2022/10/11 07:40:42;;;;;;;1.47;1.37;;;;;;;19.95;67.66;95918.16;5134338;27;20792;-50
2022/10/11 07:43:11;;;;;;;0.90;0.70;;;;;;;20.55;66.97;95936.28;5134359;27;20441;-50
2022/10/11 07:45:39;;;;;;;1.00;1.00;;;;;;;20.40;67.33;95942.94;5134195;27;20427;-49
2022/10/11 07:48:08;;;;;;;1.13;0.70;;;;;;;20.27;66.26;95944.66;5134007;27;20434;-50
2022/10/11 07:50:37;;;;;;;1.23;1.23;;;;;;;20.65;65.96;95925.19;5133911;27;20516;-49
2022/10/11 07:53:05;;;;;;;0.50;0.50;;;;;;;21.06;63.88;95938.97;5133838;27;21023;-49
2022/10/11 07:55:39;;;;;;;3.40;0.90;;;;;;;21.89;62.16;95942.03;5134303;27;20424;-49
2022/10/11 07:58:08;;;;;;;0.60;0.50;;;;;;;22.01;62.39;95944.84;5133989;27;20421;-50
2022/10/11 08:00:37;;;;;;;1.00;0.30;;;;;;;22.23;59.48;95935.66;5134280;27;20434;-50
2022/10/11 08:03:07;;;;;;;0.60;0.53;;;;;;;21.41;60.20;95937.75;5133825;27;20441;-49
2022/10/11 08:05:37;;;;;;;0.50;0.30;;;;;;;21.27;61.96;95934.50;5133744;27;20458;-49
2022/10/11 08:08:06;;;;;;;0.77;0.77;;;;;;;21.24;61.48;95929.72;5133769;27;20882;-49
2022/10/11 08:10:38;;;;;;;1.23;1.00;;;;;;;22.00;60.74;95927.06;5133489;27;20438;-49
2022/10/11 08:13:07;;;;;;;0.80;0.80;;;;;;;22.21;59.72;95929.78;5133462;27;20466;-50
2022/10/11 08:15:36;;;;;;;2.90;0.80;;;;;;;22.32;58.67;95922.84;5133945;27;20902;-51
2022/10/11 08:18:04;;;;;;;1.00;1.00;;;;;;;22.06;58.33;95926.53;5133734;27;20422;-51
2022/10/11 08:20:33;;;;;;;1.43;1.33;;;;;;;22.58;57.98;95916.16;5133717;27;20465;-51
2022/10/11 08:23:01;;;;;;;0.70;0.70;;;;;;;22.67;57.31;95921.50;5133616;27;20779;-51
2022/10/11 08:25:29;;;;;;;2.93;0.53;;;;;;;23.09;57.01;95916.81;5133154;27;20485;-49
2022/10/11 08:27:59;;;;;;;0.67;0.67;;;;;;;23.51;56.18;95914.78;5133020;27;20423;-49
2022/10/11 08:30:27;;;;;;;1.07;1.03;;;;;;;22.64;56.21;95908.69;5133427;27;20803;-50
2022/10/11 08:32:55;;;;;;;0.50;0.40;;;;;;;22.38;56.93;95908.84;5133302;27;20434;-49
2022/10/11 08:35:24;;;;;;;1.77;1.67;;;;;;;22.03;57.36;95905.59;5133188;27;20435;-49
2022/10/11 08:37:52;;;;;;;0.60;0.40;;;;;;;22.78;56.36;95906.47;5133105;27;20591;-48
2022/10/11 08:40:22;;;;;;;0.60;0.60;;;;;;;22.59;55.90;95906.91;5133139;27;20438;-48
2022/10/11 08:42:57;;;;;;;0.63;0.57;;;;;;;22.68;55.65;95904.19;5132967;27;20433;-48
2022/10/11 08:45:33;;;;;;;1.13;1.03;;;;;;;21.51;57.57;95902.34;5133010;27;20421;-48
2022/10/11 08:48:08;;;;;;;0.80;0.80;;;;;;;21.19;58.50;95897.56;5133322;27;20456;-49
2022/10/11 08:50:38;;;;;;;0.40;0.40;;;;;;;21.28;58.70;95894.81;5132888;27;20425;-49
2022/10/11 08:53:15;;;;;;;0.70;0.70;;;;;;;21.69;58.19;95905.75;5131877;27;20814;-49
2022/10/11 08:55:47;;;;;;;1.87;0.60;;;;;;;21.77;58.81;95901.44;5133108;27;20421;-49
2022/10/11 08:58:19;;;;;;;0.57;0.40;;;;;;;21.63;58.81;95885.47;5132798;27;20430;-49
2022/10/11 09:00:53;;;;;;;1.00;0.90;;;;;;;21.49;57.95;95885.69;5132608;27;20437;-50
2022/10/11 09:03:34;;;;;;;1.37;1.37;;;;;;;21.38;58.16;95897.16;5132755;27;20945;-51
2022/10/11 09:06:12;;;;;;;0.97;0.63;;;;;;;21.67;57.50;95891.00;5132663;27;20433;-50
2022/10/11 09:08:55;;;;;;;0.87;0.87;;;;;;;21.52;57.70;95879.66;5131931;27;20440;-50
2022/10/11 09:11:34;;;;;;;0.50;0.47;;;;;;;21.48;57.12;95889.50;5132909;27;20437;-49
2022/10/11 09:14:46;;;;;;;0.57;0.40;;;;;;;21.47;57.18;95893.31;5132838;27;20829;-51
2022/10/11 09:17:29;;;;;;;0.73;0.73;;;;;;;21.45;57.42;95886.69;5132905;27;20438;-49
2022/10/11 09:20:23;;;;;;;0.63;0.63;;;;;;;20.88;58.49;95889.66;5133143;27;20435;-49
2022/10/11 09:23:01;;;;;;;0.50;0.50;;;;;;;21.30;57.89;95890.69;5132777;27;20441;-50
2022/10/11 09:25:35;;;;;;;0.60;0.60;;;;;;;21.60;56.06;95891.53;5132437;27;20985;-49
2022/10/11 09:28:15;;;;;;;0.50;0.30;;;;;;;21.89;55.47;95888.84;5132757;27;20434;-49
2022/10/11 09:30:49;;;;;;;1.07;0.60;;;;;;;22.08;55.47;95891.91;5132482;27;20919;-50
2022/10/11 09:33:21;;;;;;;1.60;0.70;;;;;;;21.81;55.70;95880.75;5132320;27;20440;-50
2022/10/11 09:35:52;;;;;;;0.60;0.50;;;;;;;21.56;56.01;95890.56;5132454;27;20431;-50
2022/10/11 09:38:38;;;;;;;0.80;0.57;;;;;;;21.80;55.31;95879.19;5131836;27;20815;-50
2022/10/11 09:41:14;;;;;;;0.43;0.40;;;;;;;21.97;54.89;95876.41;5132880;27;20435;-50
2022/10/11 09:43:47;;;;;;;0.57;0.43;;;;;;;21.92;55.29;95876.59;5132239;27;20442;-50
2022/10/11 09:46:23;;;;;;;0.50;0.30;;;;;;;22.07;55.29;95874.13;5132582;27;20452;-50
2022/10/11 09:48:55;;;;;;;0.47;0.33;;;;;;;22.02;54.85;95878.91;5131785;27;20430;-58
2022/10/11 09:51:27;;;;;;;0.50;0.43;;;;;;;21.60;55.76;95874.53;5131934;27;20440;-58
2022/10/11 09:53:57;;;;;;;4.70;1.63;;;;;;;20.94;56.89;95871.44;5132029;27;20475;-58
2022/10/11 09:56:28;;;;;;;2.40;1.90;;;;;;;20.32;58.46;95865.63;5132202;27;20427;-58
2022/10/11 09:59:25;;;;;;;4.17;3.80;;;;;;;20.78;56.89;95800.31;5132227;27;20441;-58
2022/10/11 10:02:18;;;;;;;0.60;0.57;;;;;;;21.20;57.19;95861.38;5134654;27;20460;-58
2022/10/11 10:05:14;;;;;;;2.30;0.90;;;;;;;21.41;56.71;95861.44;5135301;27;20417;-58
2022/10/11 10:08:02;;;;;;;0.50;0.30;;;;;;;21.78;56.69;95849.06;5136320;27;20459;-57
2022/10/11 10:10:40;;;;;;;0.97;0.90;;;;;;;20.93;57.85;95853.66;5135828;27;20520;-57
2022/10/11 10:13:20;;;;;;;3.50;0.60;;;;;;;20.67;57.43;95785.63;5135945;27;20436;-57
2022/10/11 10:15:52;;;;;;;0.50;0.30;;;;;;;21.62;57.08;95851.53;5135694;27;20567;-57
2022/10/11 10:18:24;;;;;;;1.60;0.87;;;;;;;21.01;56.97;95834.00;5136151;27;20506;-58
2022/10/11 10:20:58;;;;;;;0.70;0.50;;;;;;;20.81;57.82;95848.97;5135750;27;20432;-57
2022/10/11 10:23:29;;;;;;;0.50;0.40;;;;;;;21.19;57.76;95848.22;5135680;27;20778;-58
2022/10/11 10:26:16;;;;;;;0.67;0.67;;;;;;;21.62;56.66;95846.13;5135340;27;20411;-58
2022/10/11 10:29:00;;;;;;;0.70;0.70;;;;;;;21.48;57.09;95848.25;5135357;27;20435;-58
2022/10/11 10:31:35;;;;;;;0.50;0.30;;;;;;;21.28;57.16;95838.19;5135891;27;20427;-58
2022/10/11 10:34:26;;;;;;;0.57;0.50;;;;;;;21.31;57.17;95838.34;5134400;27;20507;-58
2022/10/11 10:36:59;;;;;;;0.50;0.40;;;;;;;21.27;56.90;95839.31;5135577;27;20426;-58
2022/10/11 10:39:38;;;;;;;0.50;0.50;;;;;;;21.48;56.51;95830.16;5136077;27;20774;-58
2022/10/11 10:42:14;;;;;;;0.50;0.40;;;;;;;21.75;56.19;95828.09;5135356;27;20916;-58
2022/10/11 10:44:43;;;;;;;0.53;0.53;;;;;;;21.66;56.16;95830.06;5135414;27;20924;-58
2022/10/11 10:47:19;;;;;;;0.40;0.30;;;;;;;21.51;56.74;95829.50;5135722;27;20781;-58
2022/10/11 10:49:57;;;;;;;0.70;0.70;;;;;;;22.01;55.12;95826.06;5135602;27;20452;-58
2022/10/11 10:52:47;;;;;;;0.40;0.30;;;;;;;21.82;55.31;95833.78;5135260;27;20420;-58
2022/10/11 10:55:28;;;;;;;0.70;0.70;;;;;;;21.89;56.01;95832.16;5134983;27;20482;-58
2022/10/11 10:58:05;;;;;;;0.40;0.30;;;;;;;21.85;55.46;95820.47;5135305;27;20427;-58
2022/10/11 11:00:43;;;;;;;1.80;0.93;;;;;;;21.35;55.52;95817.69;5135307;27;20445;-58
2022/10/11 11:03:21;;;;;;;0.47;0.40;;;;;;;21.49;55.93;95823.66;5134895;27;20643;-58
2022/10/11 11:06:00;;;;;;;0.50;0.40;;;;;;;21.49;55.47;95828.25;5134976;27;20438;-58
2022/10/11 11:08:42;;;;;;;15.70;0.50;;;;;;;21.35;55.17;95833.88;5135094;27;20437;-58
2022/10/11 11:11:27;;;;;;;0.47;0.37;;;;;;;21.77;54.82;95821.28;5135178;27;20420;-58
2022/10/11 11:14:03;;;;;;;0.77;0.50;;;;;;;21.18;55.71;95815.06;5135019;27;20511;-58
2022/10/11 11:16:41;;;;;;;0.53;0.53;;;;;;;20.94;57.29;95819.44;5134783;27;20465;-58
2022/10/11 11:19:20;;;;;;;0.40;0.30;;;;;;;21.09;56.66;95813.53;5134725;27;20430;-58
2022/10/11 11:21:56;;;;;;;0.87;0.40;;;;;;;21.52;57.30;95798.75;5135085;27;20833;-58
2022/10/11 11:24:37;;;;;;;0.63;0.63;;;;;;;21.80;55.96;95814.44;5133563;27;20461;-58
2022/10/11 11:27:15;;;;;;;0.60;0.50;;;;;;;21.44;57.96;95804.97;5134483;27;20796;-58
2022/10/11 11:29:52;;;;;;;0.93;0.93;;;;;;;21.19;58.15;95811.28;5134407;27;20804;-58
2022/10/11 11:32:33;;;;;;;0.70;0.63;;;;;;;21.72;58.60;95807.97;5134161;27;20936;-58
2022/10/11 11:35:09;;;;;;;0.80;0.80;;;;;;;21.66;58.00;95803.88;5134388;27;20464;-58
2022/10/11 11:37:40;;;;;;;0.40;0.30;;;;;;;21.42;57.93;95807.22;5134202;27;20435;-58
2022/10/11 11:40:17;;;;;;;0.80;0.80;;;;;;;21.09;60.38;95800.84;5134697;27;20453;-58
2022/10/11 11:42:49;;;;;;;1.67;0.60;;;;;;;20.82;60.17;95795.88;5133931;27;20483;-57
2022/10/11 11:45:22;;;;;;;0.80;0.70;;;;;;;20.98;61.77;95799.59;5133876;27;20429;-58
2022/10/11 11:47:56;;;;;;;0.57;0.57;;;;;;;21.27;60.47;95794.28;5134486;27;20435;-57
2022/10/11 11:50:25;;;;;;;1.23;0.70;;;;;;;21.66;60.25;95786.88;5134242;27;20437;-58
2022/10/11 11:53:03;;;;;;;0.50;0.37;;;;;;;21.73;59.95;95806.84;5134243;27;20423;-58
2022/10/11 11:55:48;;;;;;;0.40;0.40;;;;;;;21.79;59.41;95802.03;5134293;27;20465;-58
2022/10/11 11:58:44;;;;;;;0.70;0.40;;;;;;;21.98;58.08;95805.91;5133849;27;20963;-58
2022/10/11 12:01:23;;;;;;;0.50;0.40;;;;;;;21.58;59.10;95803.94;5133163;27;20430;-58